Time;durP1;ratioP1;P1;durP2;ratioP2;P2;SDS_P1;SDS_P2;PMS_P1;PMS_P2;Temp;Humidity;BMP_temperature;BMP_pressure;BME280_temperature;BME280_humidity;BME280_pressure;Samples;Min_cycle;Max_cycle;Signal;HPM_P1;HPM_P2
2023/03/02 00:02:21;;;;;;;16.67;7.68;;;;;;;2.47;58.22;101846.63;5051887;28;20045;-55
2023/03/02 00:04:52;;;;;;;24.35;8.57;;;;;;;2.46;57.59;101852.81;5048917;28;20045;-55
2023/03/02 00:07:28;;;;;;;19.70;9.05;;;;;;;2.55;57.68;101849.75;5052069;28;20072;-55
2023/03/02 00:09:54;;;;;;;20.25;8.75;;;;;;;2.58;57.83;101846.94;5051427;28;20297;-56
2023/03/02 00:12:21;;;;;;;16.80;7.90;;;;;;;2.41;57.70;101845.16;5056191;28;20496;-55
2023/03/02 00:14:48;;;;;;;21.20;8.63;;;;;;;2.48;57.75;101853.59;5052575;28;20091;-55
2023/03/02 00:17:15;;;;;;;17.75;8.38;;;;;;;2.49;57.36;101845.66;5055185;28;20063;-55
2023/03/02 00:19:43;;;;;;;18.52;8.02;;;;;;;2.52;57.78;101846.44;5054031;28;20041;-56
2023/03/02 00:22:10;;;;;;;18.27;8.98;;;;;;;2.44;57.94;101841.56;5054957;28;20560;-55
2023/03/02 00:24:37;;;;;;;17.92;8.27;;;;;;;2.48;57.39;101832.63;5057556;28;20124;-55
2023/03/02 00:27:04;;;;;;;17.40;7.72;;;;;;;2.42;58.11;101830.28;5074608;28;20075;-55
2023/03/02 00:29:31;;;;;;;17.05;8.70;;;;;;;2.32;58.04;101829.91;5074993;28;20044;-55
2023/03/02 00:31:57;;;;;;;18.67;9.18;;;;;;;2.33;57.57;101833.34;5072241;28;20465;-55
2023/03/02 00:34:24;;;;;;;20.88;9.23;;;;;;;2.39;57.08;101841.78;5075374;28;20070;-55
2023/03/02 00:36:51;;;;;;;19.52;8.38;;;;;;;2.33;57.69;101834.22;5071043;28;20401;-55
2023/03/02 00:39:18;;;;;;;18.33;9.00;;;;;;;2.35;57.69;101831.50;5076610;28;20044;-55
2023/03/02 00:41:46;;;;;;;21.33;8.85;;;;;;;2.36;58.02;101828.81;5067885;28;20131;-55
2023/03/02 00:44:16;;;;;;;19.20;8.93;;;;;;;2.42;57.64;101835.53;5075328;28;20482;-55
2023/03/02 00:46:43;;;;;;;17.85;8.30;;;;;;;2.34;57.73;101841.13;5071577;28;20135;-55
2023/03/02 00:49:11;;;;;;;22.73;8.57;;;;;;;2.38;57.96;101829.59;5075647;28;20044;-55
2023/03/02 00:51:38;;;;;;;19.05;8.73;;;;;;;2.37;58.04;101830.53;5051764;28;20079;-55
2023/03/02 00:54:04;;;;;;;22.33;9.30;;;;;;;2.39;57.25;101826.06;5055860;28;20060;-55
2023/03/02 00:56:31;;;;;;;18.83;8.73;;;;;;;2.46;58.02;101826.63;5051160;28;20045;-56
2023/03/02 00:59:04;;;;;;;18.60;8.68;;;;;;;2.28;58.39;101823.97;5055086;28;20051;-55
2023/03/02 01:01:32;;;;;;;18.90;8.68;;;;;;;2.35;58.00;101828.88;5048706;28;20036;-55
2023/03/02 01:03:59;;;;;;;17.98;8.63;;;;;;;2.39;58.12;101826.06;5053853;28;20501;-55
2023/03/02 01:06:26;;;;;;;18.67;8.52;;;;;;;2.38;58.23;101823.50;5059500;28;20032;-55
2023/03/02 01:08:52;;;;;;;20.42;8.40;;;;;;;2.32;58.33;101819.41;5065365;28;20091;-55
2023/03/02 01:11:21;;;;;;;18.02;8.73;;;;;;;2.26;58.71;101810.09;5050863;28;20680;-55
2023/03/02 01:13:49;;;;;;;17.77;8.35;;;;;;;2.26;58.08;101806.63;5054604;28;20055;-55
2023/03/02 01:16:17;;;;;;;17.58;8.30;;;;;;;2.23;58.16;101805.00;5030804;28;20030;-55
2023/03/02 01:18:44;;;;;;;19.75;8.05;;;;;;;2.24;58.37;101809.31;5033927;28;20046;-55
2023/03/02 01:21:13;;;;;;;20.42;8.98;;;;;;;2.24;58.16;101800.63;5046267;28;20057;-55
2023/03/02 01:23:40;;;;;;;21.88;8.13;;;;;;;2.17;58.64;101799.22;5055458;28;20079;-55
2023/03/02 01:26:07;;;;;;;18.48;8.63;;;;;;;2.14;58.71;101801.97;5050856;28;20047;-54
2023/03/02 01:28:35;;;;;;;20.70;8.90;;;;;;;2.16;58.66;101795.75;5054484;28;20073;-55
2023/03/02 01:31:03;;;;;;;19.48;8.70;;;;;;;2.08;58.80;101793.50;5053349;28;20048;-55
2023/03/02 01:33:31;;;;;;;18.88;8.55;;;;;;;2.13;59.30;101800.28;5052312;28;20473;-54
2023/03/02 01:35:57;;;;;;;17.38;8.70;;;;;;;2.17;58.93;101792.22;5052487;28;20056;-55
2023/03/02 01:38:25;;;;;;;17.63;8.80;;;;;;;2.20;58.56;101788.59;5052715;28;20132;-55
2023/03/02 01:40:52;;;;;;;18.70;8.60;;;;;;;2.21;59.00;101788.50;5054157;28;20049;-55
2023/03/02 01:43:19;;;;;;;19.77;8.60;;;;;;;2.09;58.58;101782.13;5047059;28;20510;-54
2023/03/02 01:45:56;;;;;;;16.83;7.88;;;;;;;2.10;59.11;101767.25;5054924;28;20044;-54
2023/03/02 01:48:37;;;;;;;18.55;8.35;;;;;;;2.09;59.61;101779.50;5049623;28;20056;-54
2023/03/02 01:51:06;;;;;;;19.02;8.50;;;;;;;2.07;58.96;101770.88;5054048;28;20576;-54
2023/03/02 01:53:36;;;;;;;20.05;8.80;;;;;;;2.03;59.41;101768.47;5050459;28;20060;-54
2023/03/02 01:56:04;;;;;;;20.10;9.35;;;;;;;1.83;60.25;101767.63;5054199;28;20501;-54
2023/03/02 01:58:35;;;;;;;24.25;9.02;;;;;;;1.65;60.74;101766.72;5050165;28;20049;-54
2023/03/02 02:01:03;;;;;;;19.90;8.73;;;;;;;1.51;61.21;101766.50;5053168;28;20049;-55
2023/03/02 02:03:30;;;;;;;17.95;8.70;;;;;;;1.55;61.14;101765.47;5049715;28;20073;-55
2023/03/02 02:06:09;;;;;;;22.52;8.60;;;;;;;1.66;61.42;101770.22;5054835;28;20052;-55
2023/03/02 02:08:38;;;;;;;21.52;8.35;;;;;;;1.53;62.08;101765.53;5048828;28;20502;-53
2023/03/02 02:11:05;;;;;;;18.80;8.93;;;;;;;1.57;61.88;101760.19;5053723;28;20048;-55
2023/03/02 02:13:32;;;;;;;18.10;8.27;;;;;;;1.51;62.80;101766.50;5049987;28;20046;-54
2023/03/02 02:15:59;;;;;;;18.98;8.75;;;;;;;1.50;62.45;101762.22;5053806;28;20045;-56
2023/03/02 02:18:26;;;;;;;17.38;8.63;;;;;;;1.41;62.46;101754.78;5049357;28;20124;-57
2023/03/02 02:20:54;;;;;;;17.67;8.13;;;;;;;1.47;62.26;101757.97;5054272;28;20470;-55
2023/03/02 02:23:47;;;;;;;21.00;8.70;;;;;;;1.56;61.96;101761.09;5049242;28;20052;-55
2023/03/02 02:26:23;;;;;;;20.17;8.50;;;;;;;1.56;61.94;101756.69;5052171;28;20041;-53
2023/03/02 02:29:01;;;;;;;20.15;8.55;;;;;;;1.45;62.83;101756.34;5049526;28;20045;-54
2023/03/02 02:31:41;;;;;;;20.27;8.77;;;;;;;1.45;62.48;101751.97;5052696;28;20665;-55
2023/03/02 02:34:15;;;;;;;18.15;8.45;;;;;;;1.43;62.63;101760.81;5048757;28;20132;-55
2023/03/02 02:36:46;;;;;;;18.88;8.18;;;;;;;1.25;63.55;101755.47;5053652;28;20048;-53
2023/03/02 02:39:21;;;;;;;27.85;8.43;;;;;;;1.29;63.66;101754.44;5048876;28;20049;-54
2023/03/02 02:41:52;;;;;;;18.27;8.07;;;;;;;1.16;64.34;101761.13;5053700;28;20048;-54
2023/03/02 02:44:20;;;;;;;19.98;7.97;;;;;;;1.24;64.32;101759.03;5048181;28;20128;-54
2023/03/02 02:46:46;;;;;;;20.38;8.48;;;;;;;1.25;64.83;101752.88;5052562;28;20106;-54
2023/03/02 02:49:26;;;;;;;21.00;8.90;;;;;;;1.21;64.33;101747.84;5049444;28;20045;-54
2023/03/02 02:51:54;;;;;;;17.58;8.45;;;;;;;1.04;64.91;101754.69;5032692;28;20053;-54
2023/03/02 02:54:22;;;;;;;19.52;8.88;;;;;;;1.10;64.45;101759.63;5028322;28;20045;-56
2023/03/02 02:56:50;;;;;;;20.92;8.60;;;;;;;0.97;64.84;101752.41;5033940;28;20096;-54
2023/03/02 02:59:23;;;;;;;19.40;8.85;;;;;;;0.96;65.50;101751.53;5028361;28;20049;-54
2023/03/02 03:01:51;;;;;;;18.10;8.40;;;;;;;1.02;65.07;101748.69;5052570;28;20502;-55
2023/03/02 03:04:21;;;;;;;19.88;8.73;;;;;;;1.04;65.64;101752.06;5049333;28;20044;-55
2023/03/02 03:06:56;;;;;;;21.88;9.38;;;;;;;1.01;65.39;101744.34;5052912;28;20052;-55
2023/03/02 03:09:24;;;;;;;20.30;8.80;;;;;;;0.92;65.58;101739.53;5047987;28;20118;-55
2023/03/02 03:11:55;;;;;;;23.63;8.77;;;;;;;0.95;65.59;101744.63;5053315;28;20045;-54
2023/03/02 03:14:28;;;;;;;19.38;8.38;;;;;;;0.88;66.32;101746.66;5048202;28;20441;-55
2023/03/02 03:16:55;;;;;;;18.38;8.40;;;;;;;0.91;65.23;101735.22;5052470;28;20045;-55
2023/03/02 03:19:26;;;;;;;21.10;8.93;;;;;;;0.87;65.75;101744.09;5048775;28;20455;-55
2023/03/02 03:21:56;;;;;;;19.85;9.25;;;;;;;0.92;65.96;101737.75;5032695;28;20049;-55
2023/03/02 03:24:26;;;;;;;21.15;8.85;;;;;;;0.93;65.71;101736.03;5044213;28;20574;-54
2023/03/02 03:26:55;;;;;;;19.67;8.98;;;;;;;0.85;66.10;101740.72;5052970;28;20053;-55
2023/03/02 03:29:23;;;;;;;20.13;9.13;;;;;;;0.68;66.62;101729.25;5047727;28;20166;-55
2023/03/02 03:31:54;;;;;;;19.88;8.73;;;;;;;0.72;66.90;101730.78;5053047;28;20049;-55
2023/03/02 03:34:23;;;;;;;20.65;8.80;;;;;;;0.70;66.96;101737.00;5047946;28;20037;-55
2023/03/02 03:36:50;;;;;;;20.33;8.82;;;;;;;0.70;66.93;101739.63;5051635;28;20044;-55
2023/03/02 03:39:19;;;;;;;18.20;8.60;;;;;;;0.64;67.25;101742.47;5048559;28;20363;-55
2023/03/02 03:41:47;;;;;;;18.60;7.95;;;;;;;0.64;66.74;101738.13;5052014;28;20076;-54
2023/03/02 03:44:14;;;;;;;18.90;8.75;;;;;;;0.62;67.41;101739.09;5044739;28;20102;-54
2023/03/02 03:46:42;;;;;;;17.73;8.75;;;;;;;0.63;67.41;101733.81;5052535;28;20084;-54
2023/03/02 03:49:09;;;;;;;20.55;8.50;;;;;;;0.72;66.64;101736.03;5048216;28;20124;-54
2023/03/02 03:51:36;;;;;;;19.40;8.68;;;;;;;0.79;65.89;101739.22;5051462;28;20502;-55
2023/03/02 03:54:07;;;;;;;21.65;9.15;;;;;;;0.68;66.73;101737.06;5048403;28;20124;-55
2023/03/02 03:56:41;;;;;;;21.05;9.23;;;;;;;0.66;66.81;101744.13;5052875;28;20144;-55
2023/03/02 03:59:12;;;;;;;20.10;8.30;;;;;;;0.68;67.01;101746.69;5047617;28;20591;-55
2023/03/02 04:01:47;;;;;;;17.55;8.00;;;;;;;0.60;67.12;101738.31;5052210;28;20045;-55
2023/03/02 04:04:19;;;;;;;20.77;8.63;;;;;;;0.62;67.55;101742.56;5048581;28;20057;-55
2023/03/02 04:06:47;;;;;;;;;;;;;;;0.65;67.69;101737.19;5051970;28;20041;-57
2023/03/02 04:09:16;;;;;;;22.58;8.50;;;;;;;0.62;67.89;101736.47;5048517;28;19928;-57
2023/03/02 04:11:45;;;;;;;20.60;8.32;;;;;;;0.66;67.81;101743.28;5052665;28;20049;-54
2023/03/02 04:14:13;;;;;;;21.35;8.43;;;;;;;0.67;67.81;101735.38;5047294;28;20045;-53
2023/03/02 04:16:41;;;;;;;20.00;8.68;;;;;;;0.56;68.04;101738.47;5052081;28;20401;-55
2023/03/02 04:19:08;;;;;;;20.38;8.98;;;;;;;0.47;68.22;101738.81;5048080;28;20037;-55
2023/03/02 04:21:39;;;;;;;20.50;8.30;;;;;;;0.49;68.61;101734.41;5051902;28;20049;-55
2023/03/02 04:24:07;;;;;;;21.63;8.77;;;;;;;0.49;69.29;101739.63;5047315;28;20451;-59
2023/03/02 04:26:36;;;;;;;19.38;8.88;;;;;;;0.55;68.88;101733.31;5061646;28;20041;-55
2023/03/02 04:29:04;;;;;;;20.65;9.15;;;;;;;0.54;68.26;101732.44;5067112;28;20332;-55
2023/03/02 04:31:32;;;;;;;21.88;9.02;;;;;;;0.53;68.52;101732.53;5072280;28;20140;-55
2023/03/02 04:34:03;;;;;;;18.65;8.70;;;;;;;0.60;68.08;101736.56;5067073;28;20068;-55
2023/03/02 04:36:33;;;;;;;17.85;8.52;;;;;;;0.55;68.11;101728.06;5072186;28;20133;-55
2023/03/02 04:39:03;;;;;;;20.55;8.95;;;;;;;0.54;67.92;101736.81;5067469;28;20132;-55
2023/03/02 04:41:30;;;;;;;19.25;8.68;;;;;;;0.56;67.82;101738.47;5071578;28;20052;-55
2023/03/02 04:43:56;;;;;;;19.45;8.82;;;;;;;0.60;67.00;101738.31;5068616;28;20098;-55
2023/03/02 04:46:25;;;;;;;18.30;8.77;;;;;;;0.47;67.49;101740.59;5068546;28;20056;-55
2023/03/02 04:48:52;;;;;;;21.60;8.55;;;;;;;0.47;67.73;101746.66;5071476;28;20489;-55
2023/03/02 04:51:25;;;;;;;18.60;8.50;;;;;;;0.49;67.33;101738.75;5051015;28;20402;-55
2023/03/02 04:53:56;;;;;;;20.67;9.27;;;;;;;0.37;67.35;101738.38;5053040;28;20503;-55
2023/03/02 04:56:23;;;;;;;19.13;8.27;;;;;;;0.47;68.18;101727.53;5050599;28;20094;-55
2023/03/02 04:58:50;;;;;;;18.88;8.70;;;;;;;0.54;67.55;101719.38;5054536;28;20049;-55
2023/03/02 05:01:18;;;;;;;18.40;7.85;;;;;;;0.57;67.13;101724.47;5050386;28;20049;-55
2023/03/02 05:03:45;;;;;;;17.30;8.23;;;;;;;0.64;66.21;101718.97;5055169;28;20076;-55
2023/03/02 05:06:12;;;;;;;20.42;8.77;;;;;;;0.66;66.49;101727.63;5050491;28;20495;-55
2023/03/02 05:08:39;;;;;;;22.92;9.00;;;;;;;0.67;66.28;101724.06;5054994;28;20124;-54
2023/03/02 05:11:07;;;;;;;21.42;8.52;;;;;;;0.75;65.79;101716.78;5050106;28;20079;-54
2023/03/02 05:13:34;;;;;;;20.48;8.10;;;;;;;0.75;65.15;101715.00;5055761;28;20083;-55
2023/03/02 05:16:02;;;;;;;18.83;8.68;;;;;;;0.87;64.18;101721.44;5050111;28;20047;-55
2023/03/02 05:18:28;;;;;;;19.27;8.65;;;;;;;0.85;64.28;101725.03;5054135;28;20490;-55
2023/03/02 05:20:56;;;;;;;20.38;8.02;;;;;;;0.83;64.79;101721.66;5050488;28;20044;-55
2023/03/02 05:23:23;;;;;;;15.80;7.53;;;;;;;0.81;63.53;101723.50;5054371;28;20044;-55
2023/03/02 05:25:53;;;;;;;18.92;7.63;;;;;;;0.85;63.54;101731.09;5049385;28;20051;-55
2023/03/02 05:28:22;;;;;;;20.05;8.05;;;;;;;0.88;63.62;101722.31;5055387;28;20053;-55
2023/03/02 05:30:50;;;;;;;19.70;8.48;;;;;;;0.80;63.18;101716.56;5050587;28;20049;-56
2023/03/02 05:33:18;;;;;;;17.77;8.55;;;;;;;0.88;63.02;101717.09;5053899;28;20041;-55
2023/03/02 05:35:45;;;;;;;16.92;8.18;;;;;;;0.85;63.63;101731.09;5050804;28;20049;-55
2023/03/02 05:38:12;;;;;;;20.58;8.63;;;;;;;0.88;63.43;101728.38;5055255;28;20049;-55
2023/03/02 05:40:41;;;;;;;20.75;8.05;;;;;;;0.89;63.35;101719.63;5049433;28;20041;-58
2023/03/02 05:43:08;;;;;;;21.25;8.77;;;;;;;0.90;62.82;101723.94;5054648;28;20037;-55
2023/03/02 05:45:36;;;;;;;18.20;8.27;;;;;;;0.85;62.96;101725.03;5047158;28;20059;-55
2023/03/02 05:48:04;;;;;;;17.17;8.05;;;;;;;0.87;62.47;101724.06;5053706;28;20052;-55
2023/03/02 05:50:32;;;;;;;18.58;7.60;;;;;;;0.72;62.80;101729.97;5052047;28;20442;-55
2023/03/02 05:53:01;;;;;;;20.92;7.55;;;;;;;0.85;63.43;101733.72;5052319;28;20060;-55
2023/03/02 05:55:28;;;;;;;19.00;8.20;;;;;;;0.91;63.22;101736.09;5052452;28;20123;-55
2023/03/02 05:57:55;;;;;;;17.38;8.25;;;;;;;0.89;63.28;101734.44;5051376;28;20067;-55
2023/03/02 06:00:22;;;;;;;20.08;7.90;;;;;;;0.71;63.99;101736.09;5053525;28;20048;-55
2023/03/02 06:02:49;;;;;;;19.33;8.10;;;;;;;0.74;63.37;101728.97;5049867;28;20107;-55
2023/03/02 06:05:18;;;;;;;17.77;8.23;;;;;;;0.79;64.33;101739.22;5054540;28;20049;-55
2023/03/02 06:07:45;;;;;;;20.42;8.30;;;;;;;0.73;64.69;101732.50;5048995;28;20128;-54
2023/03/02 06:10:13;;;;;;;20.05;8.40;;;;;;;0.74;64.25;101738.56;5052474;28;20044;-55
2023/03/02 06:12:39;;;;;;;17.88;8.43;;;;;;;0.65;64.45;101729.38;5049862;28;20052;-55
2023/03/02 06:15:07;;;;;;;20.55;9.18;;;;;;;0.60;65.50;101730.47;5053607;28;20052;-55
2023/03/02 06:17:35;;;;;;;21.05;8.85;;;;;;;0.61;64.93;101737.41;5048911;28;20056;-55
2023/03/02 06:20:06;;;;;;;19.52;8.93;;;;;;;0.66;65.19;101731.06;5054344;28;20116;-55
2023/03/02 06:22:33;;;;;;;20.40;8.98;;;;;;;0.72;65.11;101740.41;5049136;28;20155;-55
2023/03/02 06:25:00;;;;;;;26.10;9.70;;;;;;;0.69;63.52;101744.00;5053248;28;20124;-55
2023/03/02 06:27:26;;;;;;;23.25;9.05;;;;;;;0.69;64.66;101735.31;5035424;28;20435;-55
2023/03/02 06:29:53;;;;;;;21.55;8.48;;;;;;;0.63;63.50;101735.56;5033311;28;20034;-58
2023/03/02 06:32:20;;;;;;;16.10;8.13;;;;;;;0.73;64.01;101742.97;5027566;28;20073;-59
2023/03/02 06:34:47;;;;;;;23.08;8.80;;;;;;;0.79;64.05;101744.44;5032725;28;20049;-58
2023/03/02 06:37:13;;;;;;;20.50;8.52;;;;;;;0.80;65.13;101747.91;5029120;28;20065;-54
2023/03/02 06:39:40;;;;;;;22.45;8.90;;;;;;;0.86;64.52;101739.81;5032813;28;20119;-55
2023/03/02 06:42:06;;;;;;;18.95;8.70;;;;;;;0.83;63.70;101743.41;5029315;28;20049;-55
2023/03/02 06:44:33;;;;;;;17.52;8.10;;;;;;;0.91;62.56;101735.22;5033487;28;20049;-55
2023/03/02 06:47:00;;;;;;;19.70;8.55;;;;;;;0.95;62.56;101740.25;5028131;28;20053;-56
2023/03/02 06:49:26;;;;;;;18.25;8.02;;;;;;;1.09;62.29;101736.16;5032692;28;20127;-56
2023/03/02 06:51:53;;;;;;;18.35;8.32;;;;;;;1.16;61.58;101734.97;5048627;28;20077;-56
2023/03/02 06:54:19;;;;;;;17.15;7.85;;;;;;;1.09;60.56;101739.66;5052250;28;20090;-55
2023/03/02 06:56:48;;;;;;;18.17;8.13;;;;;;;1.05;61.02;101747.69;5046778;28;20049;-55
2023/03/02 06:59:15;;;;;;;20.55;8.15;;;;;;;1.02;61.27;101747.81;5053029;28;20055;-54
2023/03/02 07:01:43;;;;;;;19.10;8.52;;;;;;;1.13;61.19;101741.22;5047280;28;20056;-55
2023/03/02 07:04:09;;;;;;;19.80;8.27;;;;;;;1.29;60.49;101748.34;5053343;28;20052;-56
2023/03/02 07:06:36;;;;;;;19.63;9.32;;;;;;;1.24;60.48;101753.78;5037724;28;20497;-56
2023/03/02 07:09:03;;;;;;;20.77;8.60;;;;;;;1.29;61.09;101751.84;5052388;28;20131;-56
2023/03/02 07:11:30;;;;;;;20.42;8.20;;;;;;;1.42;61.01;101749.50;5048385;28;20380;-55
2023/03/02 07:13:59;;;;;;;18.60;8.55;;;;;;;1.40;60.41;101750.47;5052435;28;20045;-56
2023/03/02 07:16:26;;;;;;;17.90;8.27;;;;;;;1.40;60.28;101753.09;5046383;28;20091;-56
2023/03/02 07:18:52;;;;;;;19.05;8.48;;;;;;;1.41;59.90;101754.78;5053327;28;20102;-56
2023/03/02 07:21:19;;;;;;;21.20;8.18;;;;;;;1.56;59.94;101755.84;5048122;28;20045;-55
2023/03/02 07:23:46;;;;;;;17.42;8.40;;;;;;;1.46;58.97;101740.59;5052132;28;20079;-55
2023/03/02 07:26:12;;;;;;;20.05;9.07;;;;;;;1.52;59.64;101745.53;5048583;28;20049;-54
2023/03/02 07:28:40;;;;;;;20.90;8.65;;;;;;;1.64;59.58;101751.97;5052873;28;20083;-55
2023/03/02 07:31:08;;;;;;;18.75;8.57;;;;;;;1.76;58.97;101755.75;5046994;28;20037;-55
2023/03/02 07:33:36;;;;;;;18.60;9.15;;;;;;;1.75;59.13;101748.84;5052421;28;20045;-56
2023/03/02 07:36:03;;;;;;;18.65;8.52;;;;;;;1.76;59.51;101755.75;5048157;28;20681;-55
2023/03/02 07:38:29;;;;;;;23.27;9.40;;;;;;;1.86;58.30;101758.81;5052130;28;20487;-55
2023/03/02 07:40:56;;;;;;;19.08;8.13;;;;;;;1.97;58.66;101753.06;5048199;28;20045;-54
2023/03/02 07:43:24;;;;;;;18.50;8.38;;;;;;;1.93;58.06;101749.75;5052092;28;20057;-55
2023/03/02 07:45:51;;;;;;;18.60;8.50;;;;;;;1.90;57.87;101752.50;5030199;28;20197;-55
2023/03/02 07:48:18;;;;;;;18.30;8.48;;;;;;;1.91;57.56;101754.19;5048802;28;20073;-56
2023/03/02 07:50:45;;;;;;;26.42;8.45;;;;;;;1.94;56.94;101759.28;5052212;28;20048;-56
2023/03/02 07:53:12;;;;;;;17.08;8.32;;;;;;;2.04;56.46;101757.94;5047474;28;20045;-56
2023/03/02 07:55:40;;;;;;;17.00;8.20;;;;;;;2.18;56.42;101764.25;5068072;28;20057;-55
2023/03/02 07:58:06;;;;;;;19.33;8.70;;;;;;;2.15;55.86;101761.78;5046991;28;20099;-56
2023/03/02 08:00:35;;;;;;;22.98;8.50;;;;;;;2.22;55.74;101763.19;5052075;28;20502;-55
2023/03/02 08:03:02;;;;;;;25.33;8.88;;;;;;;2.23;55.50;101770.13;5048350;28;20098;-55
2023/03/02 08:05:29;;;;;;;23.95;8.57;;;;;;;2.42;55.89;101768.31;5051388;28;20136;-56
2023/03/02 08:07:56;;;;;;;19.77;8.43;;;;;;;2.55;54.64;101775.53;5048230;28;20128;-55
2023/03/02 08:10:23;;;;;;;19.40;8.15;;;;;;;2.76;54.74;101765.75;5052876;28;20048;-55
2023/03/02 08:12:49;;;;;;;21.08;8.30;;;;;;;2.83;54.47;101767.97;5047087;28;20096;-55
2023/03/02 08:15:16;;;;;;;17.67;8.32;;;;;;;3.00;53.56;101769.72;5050730;28;20041;-55
2023/03/02 08:17:43;;;;;;;22.20;8.35;;;;;;;3.06;53.53;101765.94;5048271;28;20059;-55
2023/03/02 08:20:11;;;;;;;16.08;7.93;;;;;;;2.99;52.96;101764.56;5051623;28;20404;-55
2023/03/02 08:22:38;;;;;;;20.20;7.85;;;;;;;3.16;53.12;101772.38;5047256;28;20053;-54
2023/03/02 08:25:06;;;;;;;17.25;8.10;;;;;;;3.20;53.05;101770.44;5052564;28;20509;-56
2023/03/02 08:27:32;;;;;;;26.42;8.73;;;;;;;3.33;52.62;101762.75;5045093;28;20041;-54
2023/03/02 08:29:59;;;;;;;18.25;8.18;;;;;;;3.21;52.13;101764.28;5053500;28;20116;-54
2023/03/02 08:32:26;;;;;;;16.45;7.75;;;;;;;3.18;51.99;101764.44;5050837;28;20041;-54
2023/03/02 08:34:53;;;;;;;18.83;8.10;;;;;;;3.31;52.72;101765.50;5055407;28;20044;-55
2023/03/02 08:37:20;;;;;;;16.08;8.00;;;;;;;3.34;52.08;101764.47;5051531;28;20082;-55
2023/03/02 08:39:47;;;;;;;19.27;8.88;;;;;;;3.41;52.23;101763.22;5055511;28;20049;-56
2023/03/02 08:42:14;;;;;;;18.58;7.95;;;;;;;3.35;51.02;101755.69;5050879;28;20130;-54
2023/03/02 08:44:40;;;;;;;20.00;7.93;;;;;;;3.31;51.88;101757.63;5056307;28;20041;-55
2023/03/02 08:47:07;;;;;;;21.10;8.88;;;;;;;3.27;51.21;101753.44;5050693;28;20049;-55
2023/03/02 08:49:36;;;;;;;16.55;7.97;;;;;;;3.58;51.51;101757.88;5051958;28;20129;-55
2023/03/02 08:52:03;;;;;;;20.48;9.27;;;;;;;3.59;50.45;101758.75;5056158;28;20423;-55
2023/03/02 08:54:33;;;;;;;18.02;9.10;;;;;;;3.49;51.00;101758.38;5050896;28;20511;-55
2023/03/02 08:57:01;;;;;;;20.20;9.15;;;;;;;3.61;51.55;101752.47;5054604;28;20132;-55
2023/03/02 08:59:27;;;;;;;22.75;9.18;;;;;;;3.57;50.77;101752.75;5051159;28;20033;-55
2023/03/02 09:01:54;;;;;;;20.42;8.10;;;;;;;3.52;50.81;101749.53;5054958;28;20091;-55
2023/03/02 09:04:21;;;;;;;20.42;8.63;;;;;;;3.40;51.15;101749.25;5050461;28;20048;-55
2023/03/02 09:06:48;;;;;;;21.48;9.65;;;;;;;3.43;51.49;101750.84;5055704;28;20049;-55
2023/03/02 09:09:15;;;;;;;20.95;8.80;;;;;;;3.50;51.71;101752.22;5051118;28;20049;-55
2023/03/02 09:11:42;;;;;;;20.73;8.52;;;;;;;3.68;50.91;101746.91;5054847;28;20053;-55
2023/03/02 09:14:10;;;;;;;19.13;8.75;;;;;;;3.78;51.16;101748.06;5050432;28;20090;-55
2023/03/02 09:16:37;;;;;;;20.60;8.73;;;;;;;3.72;50.57;101749.25;5056229;28;20045;-56
2023/03/02 09:19:05;;;;;;;18.30;8.27;;;;;;;3.92;50.15;101734.19;5050684;28;20053;-60
2023/03/02 09:21:32;;;;;;;18.55;8.45;;;;;;;3.96;50.00;101743.56;5054548;28;20041;-58
2023/03/02 09:23:59;;;;;;;21.48;8.57;;;;;;;3.97;50.05;101740.03;5038576;28;20052;-57
2023/03/02 09:26:26;;;;;;;18.30;7.82;;;;;;;4.00;49.89;101731.94;5054599;28;20079;-58
2023/03/02 09:28:54;;;;;;;21.98;8.70;;;;;;;3.91;50.31;101730.72;5050655;28;20453;-57
2023/03/02 09:31:21;;;;;;;18.60;9.32;;;;;;;3.91;49.57;101735.97;5054805;28;20487;-55
2023/03/02 09:33:48;;;;;;;18.92;8.75;;;;;;;4.09;49.68;101734.06;5048555;28;20542;-56
2023/03/02 09:36:20;;;;;;;20.48;8.55;;;;;;;4.08;49.74;101735.00;5055279;28;20136;-56
2023/03/02 09:38:47;;;;;;;17.58;8.52;;;;;;;4.23;49.36;101731.47;5050043;28;20445;-56
2023/03/02 09:44:37;;;;;;;17.58;8.35;;;;;;;4.60;48.69;101718.84;5106771;27;20372;-55
2023/03/02 09:47:22;;;;;;;18.83;8.25;;;;;;;4.76;48.64;101731.03;5109654;28;20114;-55
2023/03/02 09:50:25;;;;;;;17.52;8.57;;;;;;;4.72;47.83;101730.38;5103207;28;20040;-55
2023/03/02 09:53:26;;;;;;;16.92;8.23;;;;;;;4.77;48.07;101735.38;5110535;28;20127;-55
2023/03/02 09:55:59;;;;;;;24.23;8.68;;;;;;;4.74;47.71;101725.88;5105728;28;20063;-55
2023/03/02 09:58:30;;;;;;;29.30;8.75;;;;;;;4.77;47.45;101728.34;5108790;28;20079;-55
2023/03/02 10:01:02;;;;;;;17.35;7.88;;;;;;;5.05;47.37;101724.03;5109711;28;20050;-55
2023/03/02 10:03:35;;;;;;;17.38;8.43;;;;;;;5.13;47.21;101718.28;5106105;28;20044;-56
2023/03/02 10:06:02;;;;;;;18.17;8.70;;;;;;;5.36;46.80;101722.97;5110735;28;20412;-56
2023/03/02 10:08:34;;;;;;;18.40;8.98;;;;;;;5.76;45.19;101732.75;5107480;28;20098;-56
2023/03/02 10:13:46;;;;;;;19.00;9.02;;;;;;;7.88;44.57;101728.81;5105974;27;20380;-54
2023/03/02 10:16:52;;;;;;;17.67;8.30;;;;;;;9.88;38.12;101731.09;5108842;28;20044;-54
2023/03/02 10:19:40;;;;;;;20.42;8.77;;;;;;;11.57;34.29;101729.16;5103836;28;20040;-54
2023/03/02 10:22:29;;;;;;;17.60;8.45;;;;;;;12.63;32.67;101734.66;5100741;28;20478;-56
2023/03/02 10:25:16;;;;;;;20.88;8.80;;;;;;;11.50;32.29;101723.53;5082803;28;20042;-56
2023/03/02 10:27:49;;;;;;;21.08;9.38;;;;;;;12.04;32.20;101726.72;5111707;28;20036;-56
2023/03/02 10:30:37;;;;;;;17.55;8.52;;;;;;;13.05;31.24;101729.75;5109627;28;20044;-56
2023/03/02 10:33:14;;;;;;;17.48;8.85;;;;;;;14.10;29.17;101726.75;5117068;28;20048;-56
2023/03/02 10:35:47;;;;;;;19.85;9.30;;;;;;;13.68;29.39;101722.88;5110550;28;20047;-56
2023/03/02 10:38:19;;;;;;;20.98;9.13;;;;;;;13.94;28.94;101724.81;5114664;28;20048;-56
2023/03/02 10:40:51;;;;;;;20.77;9.70;;;;;;;14.38;28.93;101719.50;5106046;27;20044;-56
2023/03/02 10:43:29;;;;;;;17.77;9.02;;;;;;;14.96;27.76;101723.41;5104980;28;20136;-56
2023/03/02 10:46:03;;;;;;;20.00;9.20;;;;;;;14.18;27.43;101719.69;5113297;28;20052;-56
2023/03/02 10:48:30;;;;;;;19.25;9.15;;;;;;;14.50;27.99;101720.94;5103113;28;20056;-56
2023/03/02 10:50:59;;;;;;;19.33;9.35;;;;;;;15.75;26.95;101718.69;5112229;28;20054;-56
2023/03/02 10:53:25;;;;;;;18.52;9.13;;;;;;;15.95;25.70;101719.22;5119334;27;20452;-56
2023/03/02 10:55:52;;;;;;;19.45;9.43;;;;;;;15.50;26.54;101715.13;5096420;28;20097;-56
2023/03/02 10:58:29;;;;;;;18.00;8.98;;;;;;;15.71;26.23;101718.16;5102304;28;20109;-56
2023/03/02 11:03:34;;;;;;;15.98;8.63;;;;;;;17.33;24.02;101710.31;5064616;28;20403;-56
2023/03/02 11:06:17;;;;;;;17.30;8.90;;;;;;;17.77;24.00;101712.41;5064556;28;20794;-56
2023/03/02 11:08:43;;;;;;;;;;;;;;;19.23;22.01;101721.13;5072691;28;20044;-56
2023/03/02 11:11:21;;;;;;;19.50;8.70;;;;;;;17.45;23.23;101711.59;5045500;28;19976;-56
2023/03/02 11:13:49;;;;;;;18.13;8.73;;;;;;;19.82;21.59;101706.75;5067159;28;20040;-57
2023/03/02 11:18:57;;;;;;;17.20;9.00;;;;;;;18.70;21.78;101714.00;5056119;28;20380;-58
2023/03/02 11:21:39;;;;;;;17.67;9.10;;;;;;;20.03;20.77;101709.44;5044290;28;20182;-58
2023/03/02 11:24:11;;;;;;;17.45;9.43;;;;;;;21.15;19.79;101715.00;5044161;28;20053;-57
2023/03/02 11:26:49;;;;;;;15.43;8.50;;;;;;;21.70;18.87;101710.41;5031309;28;20064;-56
2023/03/02 11:29:40;;;;;;;16.42;8.60;;;;;;;22.33;17.96;101720.91;5043743;28;20458;-56
2023/03/02 11:34:50;;;;;;;15.50;9.15;;;;;;;20.81;20.26;101712.13;5119892;27;20388;-58
2023/03/02 11:37:23;;;;;;;16.80;8.32;;;;;;;20.80;19.04;101699.66;5122980;27;20047;-56
2023/03/02 11:42:43;;;;;;;16.52;8.82;;;;;;;18.40;21.12;101700.50;5092978;27;20388;-58
2023/03/02 11:47:58;;;;;;;17.67;8.70;;;;;;;19.51;20.08;101689.81;5101475;27;20907;-57
2023/03/02 11:50:32;;;;;;;17.58;8.82;;;;;;;20.96;19.09;101693.13;5081371;28;20101;-56
2023/03/02 11:53:02;;;;;;;18.88;8.55;;;;;;;21.28;18.76;101701.53;5091453;28;20408;-57
2023/03/02 11:55:36;;;;;;;16.35;8.13;;;;;;;20.07;19.57;101697.25;5103667;28;20047;-56